Time;durP1;ratioP1;P1;durP2;ratioP2;P2;SDS_P1;SDS_P2;PMS_P1;PMS_P2;Temp;Humidity;BMP_temperature;BMP_pressure;BME280_temperature;BME280_humidity;BME280_pressure;Samples;Min_cycle;Max_cycle;Signal;HPM_P1;HPM_P2
2021/10/31 00:02:17;;;;;;;10.68;2.80;;;20.20;54.40;;;;;;5068585;28;20656;-61
2021/10/31 00:04:47;;;;;;;10.73;2.10;;;20.20;53.30;;;;;;5070062;28;20078;-61
2021/10/31 00:07:15;;;;;;;6.30;3.25;;;20.20;51.50;;;;;;5067217;28;20033;-61
2021/10/31 00:09:42;;;;;;;9.73;3.42;;;20.20;55.00;;;;;;5073431;28;20017;-61
2021/10/31 00:12:11;;;;;;;8.50;4.40;;;20.30;52.50;;;;;;5068929;28;20066;-62
2021/10/31 00:14:38;;;;;;;6.22;3.50;;;20.20;56.10;;;;;;5073183;28;20086;-69
2021/10/31 00:17:05;;;;;;;11.35;2.30;;;20.20;57.50;;;;;;5071719;28;20035;-64
2021/10/31 00:19:33;;;;;;;7.18;3.47;;;20.10;54.70;;;;;;5073200;28;20378;-65
2021/10/31 00:22:01;;;;;;;5.22;1.77;;;20.30;57.50;;;;;;5069977;28;20027;-64
2021/10/31 00:24:28;;;;;;;7.43;3.65;;;20.40;54.00;;;;;;5071418;28;20526;-65
2021/10/31 00:26:56;;;;;;;10.00;2.45;;;20.40;57.70;;;;;;5072014;28;20577;-64
2021/10/31 00:29:24;;;;;;;6.97;1.70;;;20.50;53.50;;;;;;5067880;28;20100;-62
2021/10/31 00:31:51;;;;;;;12.02;3.20;;;20.30;55.50;;;;;;5070883;28;20025;-63
2021/10/31 00:34:19;;;;;;;6.20;3.28;;;20.30;56.40;;;;;;5069370;28;20028;-63
2021/10/31 00:36:46;;;;;;;8.68;4.28;;;20.60;57.60;;;;;;5072745;28;20017;-55
2021/10/31 00:39:14;;;;;;;8.27;3.70;;;20.80;57.30;;;;;;5073067;28;20099;-56
2021/10/31 00:41:41;;;;;;;7.93;3.88;;;20.90;56.90;;;;;;5072853;28;20367;-55
2021/10/31 00:44:08;;;;;;;12.13;3.15;;;21.00;56.70;;;;;;5067034;28;20028;-56
2021/10/31 00:46:36;;;;;;;8.88;2.78;;;21.00;56.70;;;;;;5070389;28;20036;-59
2021/10/31 00:49:03;;;;;;;10.20;3.33;;;21.10;56.90;;;;;;5072441;28;20024;-55
2021/10/31 00:51:31;;;;;;;4.47;2.47;;;21.20;56.90;;;;;;5072766;28;20028;-57
2021/10/31 00:54:00;;;;;;;4.55;2.13;;;21.20;56.90;;;;;;5064897;28;20430;-59
2021/10/31 00:56:28;;;;;;;6.65;2.83;;;21.20;57.00;;;;;;5068319;28;20437;-61
2021/10/31 00:58:56;;;;;;;11.20;2.67;;;21.20;56.90;;;;;;5072077;28;20032;-59
2021/10/31 01:01:26;;;;;;;4.72;2.28;;;21.20;56.80;;;;;;5072608;28;20100;-62
2021/10/31 01:03:56;;;;;;;6.70;1.95;;;21.20;57.10;;;;;;5066554;28;20029;-60
2021/10/31 01:06:53;;;;;;;6.47;2.10;;;21.20;57.20;;;;;;5071780;28;20035;-63
2021/10/31 01:09:30;;;;;;;5.38;2.47;;;21.30;57.20;;;;;;5071081;28;20028;-66
2021/10/31 01:12:03;;;;;;;8.57;1.85;;;21.30;57.50;;;;;;5072164;28;20107;-62
2021/10/31 01:14:42;;;;;;;5.53;2.55;;;21.30;56.90;;;;;;5070915;28;20041;-64
2021/10/31 01:17:12;;;;;;;4.82;1.83;;;21.30;56.20;;;;;;5068157;28;20035;-65
2021/10/31 01:20:05;;;;;;;4.07;1.58;;;21.30;56.90;;;;;;5068740;28;20104;-62
2021/10/31 01:23:06;;;;;;;3.58;1.50;;;21.30;56.60;;;;;;5073031;28;20052;-63
2021/10/31 01:25:41;;;;;;;4.32;2.20;;;21.30;56.60;;;;;;5072857;28;20024;-62
2021/10/31 01:28:45;;;;;;;8.82;1.67;;;21.40;56.60;;;;;;5074049;28;20387;-63
2021/10/31 01:31:39;;;;;;;6.00;1.98;;;21.30;56.90;;;;;;5073238;28;20031;-61
2021/10/31 01:34:26;;;;;;;6.20;1.92;;;21.30;56.70;;;;;;5073176;28;20040;-64
2021/10/31 01:37:02;;;;;;;3.88;2.00;;;21.40;57.00;;;;;;5073498;28;20048;-65
2021/10/31 01:40:00;;;;;;;7.13;1.80;;;21.40;57.20;;;;;;5072934;28;20442;-63
2021/10/31 01:42:40;;;;;;;8.95;2.05;;;21.40;57.40;;;;;;5073902;28;20537;-67
2021/10/31 01:45:36;;;;;;;8.98;2.20;;;21.50;57.50;;;;;;5073744;28;20055;-63
2021/10/31 01:48:28;;;;;;;14.02;1.98;;;21.60;58.30;;;;;;5072666;28;20032;-64
2021/10/31 01:51:00;;;;;;;10.90;2.30;;;21.60;58.10;;;;;;5073703;28;20025;-65
2021/10/31 01:53:33;;;;;;;6.65;1.98;;;21.70;58.10;;;;;;5073270;28;20065;-65
2021/10/31 01:56:22;;;;;;;15.23;2.55;;;21.80;57.20;;;;;;5073269;28;20045;-68
2021/10/31 01:59:28;;;;;;;6.05;1.83;;;21.90;57.60;;;;;;5072676;28;20032;-63
2021/10/31 02:01:58;;;;;;;14.65;2.17;;;22.00;55.30;;;;;;5073777;28;20035;-67
2021/10/31 02:04:27;;;;;;;9.55;1.90;;;22.00;56.60;;;;;;5072999;28;20039;-67
2021/10/31 02:06:59;;;;;;;10.15;2.10;;;22.10;56.20;;;;;;5072845;28;20024;-65
2021/10/31 02:09:31;;;;;;;10.82;2.60;;;22.20;55.90;;;;;;5073438;28;20078;-63
2021/10/31 02:12:04;;;;;;;4.88;2.05;;;22.20;56.10;;;;;;5072654;28;20028;-64
2021/10/31 02:14:36;;;;;;;6.32;1.67;;;22.20;55.60;;;;;;5071354;28;20050;-69
2021/10/31 02:17:04;;;;;;;5.35;1.65;;;22.40;55.80;;;;;;5072783;28;20031;-66
2021/10/31 02:19:39;;;;;;;7.85;1.80;;;22.50;55.90;;;;;;5072634;28;20025;-64
2021/10/31 02:22:27;;;;;;;12.45;1.75;;;22.50;54.70;;;;;;5073078;28;20093;-67
2021/10/31 02:24:56;;;;;;;17.35;5.22;;;22.60;55.20;;;;;;5060173;28;20020;-66
2021/10/31 02:27:25;;;;;;;6.43;1.85;;;22.70;53.60;;;;;;5067695;28;20119;-64
2021/10/31 02:29:57;;;;;;;7.22;1.60;;;22.70;53.30;;;;;;5070576;28;20032;-66
2021/10/31 02:32:29;;;;;;;8.10;1.85;;;22.80;53.40;;;;;;5070789;28;20501;-66
2021/10/31 02:34:58;;;;;;;8.65;1.00;;;22.90;53.10;;;;;;5069239;28;20069;-62
2021/10/31 02:37:27;;;;;;;7.10;1.30;;;22.50;50.10;;;;;;5071066;28;20078;-64
2021/10/31 02:39:56;;;;;;;8.75;2.30;;;22.10;50.40;;;;;;5072124;28;20069;-62
2021/10/31 02:42:23;;;;;;;6.10;1.58;;;22.20;53.70;;;;;;5072205;28;20025;-62
2021/10/31 02:44:50;;;;;;;11.40;2.03;;;22.00;52.00;;;;;;5072261;28;20367;-62
2021/10/31 02:47:36;;;;;;;8.60;1.30;;;22.00;54.30;;;;;;5072061;28;20178;-62
2021/10/31 02:50:06;;;;;;;5.35;1.30;;;22.10;51.70;;;;;;5071381;28;20123;-62
2021/10/31 02:52:44;;;;;;;9.65;2.13;;;22.20;50.80;;;;;;5076354;28;20498;-62
2021/10/31 02:55:26;;;;;;;7.15;1.73;;;22.10;54.50;;;;;;5075254;28;20049;-63
2021/10/31 02:58:05;;;;;;;6.05;1.55;;;22.40;52.20;;;;;;5076825;28;20024;-63
2021/10/31 03:00:38;;;;;;;5.95;1.42;;;22.30;51.70;;;;;;5076502;28;20032;-64
2021/10/31 03:03:10;;;;;;;7.45;1.70;;;22.10;51.20;;;;;;5074567;28;20375;-63
2021/10/31 03:05:38;;;;;;;8.70;1.55;;;22.40;55.50;;;;;;5076258;28;20028;-64
2021/10/31 03:08:07;;;;;;;6.70;1.35;;;22.50;52.70;;;;;;5076437;28;20605;-63
2021/10/31 03:10:34;;;;;;;4.70;1.40;;;22.10;52.90;;;;;;5074914;28;20036;-62
2021/10/31 03:13:01;;;;;;;4.13;1.00;;;22.20;55.10;;;;;;5076067;28;20036;-60
2021/10/31 03:15:30;;;;;;;15.05;1.55;;;22.00;52.20;;;;;;5075915;28;20505;-54
2021/10/31 03:17:58;;;;;;;5.45;1.73;;;22.20;55.10;;;;;;5076082;28;20031;-58
2021/10/31 03:20:25;;;;;;;7.78;1.23;;;22.40;52.60;;;;;;5075738;28;20383;-56
2021/10/31 03:22:52;;;;;;;8.20;1.38;;;22.50;52.50;;;;;;5076203;28;20024;-53
2021/10/31 03:25:20;;;;;;;5.97;1.52;;;22.40;51.60;;;;;;5076131;28;20387;-54
2021/10/31 03:27:47;;;;;;;14.13;1.35;;;22.30;52.10;;;;;;5075464;28;20036;-56
2021/10/31 03:30:14;;;;;;;8.20;1.50;;;22.40;52.70;;;;;;5075524;28;20021;-52
2021/10/31 03:32:42;;;;;;;6.75;1.42;;;22.60;53.70;;;;;;5075701;28;20093;-57
2021/10/31 03:35:10;;;;;;;8.13;1.75;;;22.40;51.00;;;;;;5075614;28;20028;-59
2021/10/31 03:37:37;;;;;;;17.05;1.70;;;22.50;52.40;;;;;;5075066;28;20032;-57
2021/10/31 03:40:05;;;;;;;7.97;1.65;;;22.50;53.30;;;;;;5075444;28;20016;-57
2021/10/31 03:42:33;;;;;;;2.85;0.95;;;22.50;52.60;;;;;;5075428;28;20448;-56
2021/10/31 03:45:00;;;;;;;4.35;1.02;;;22.60;52.40;;;;;;5074804;28;20035;-54
2021/10/31 03:47:29;;;;;;;5.78;1.30;;;22.40;53.20;;;;;;5073712;28;20067;-57
2021/10/31 03:49:56;;;;;;;9.82;1.20;;;22.40;53.50;;;;;;5074941;28;20471;-56
2021/10/31 03:52:23;;;;;;;4.35;1.23;;;22.40;53.70;;;;;;5075173;28;20081;-55
2021/10/31 03:54:51;;;;;;;4.55;1.45;;;22.50;53.30;;;;;;5074909;28;20045;-56
2021/10/31 03:57:18;;;;;;;6.05;0.93;;;22.60;53.10;;;;;;5075014;28;20111;-55
2021/10/31 03:59:46;;;;;;;5.50;1.70;;;22.70;52.40;;;;;;5074952;28;20031;-58
2021/10/31 04:02:13;;;;;;;4.28;1.15;;;22.70;53.00;;;;;;5074854;28;20024;-58
2021/10/31 04:04:40;;;;;;;5.22;1.00;;;22.60;52.50;;;;;;5074442;28;20039;-58
2021/10/31 04:07:08;;;;;;;8.75;1.77;;;22.50;53.40;;;;;;5075015;28;20121;-57
2021/10/31 04:09:36;;;;;;;8.10;1.23;;;22.50;53.30;;;;;;5074907;28;20028;-57
2021/10/31 04:12:04;;;;;;;5.18;1.00;;;22.40;53.50;;;;;;5074843;28;20375;-54
2021/10/31 04:14:31;;;;;;;7.53;1.45;;;22.40;53.00;;;;;;5075006;28;20103;-54
2021/10/31 04:16:59;;;;;;;4.70;1.15;;;22.30;53.60;;;;;;5073642;28;20364;-58
2021/10/31 04:19:27;;;;;;;8.80;1.30;;;22.40;53.30;;;;;;5075202;28;20020;-56
2021/10/31 04:21:54;;;;;;;7.15;1.35;;;22.60;53.60;;;;;;5074650;28;20494;-60
2021/10/31 04:24:22;;;;;;;9.40;1.33;;;22.50;53.30;;;;;;5074468;28;20031;-57
2021/10/31 04:26:52;;;;;;;3.78;1.27;;;22.60;54.20;;;;;;5074309;28;20024;-58
2021/10/31 04:29:19;;;;;;;3.30;0.90;;;22.70;54.00;;;;;;5073219;28;20091;-57
2021/10/31 04:31:46;;;;;;;4.45;1.23;;;22.70;53.80;;;;;;5074009;28;20501;-58
2021/10/31 04:34:13;;;;;;;5.28;1.50;;;22.50;54.40;;;;;;5074401;28;20037;-61
2021/10/31 04:36:41;;;;;;;4.80;1.08;;;22.40;54.50;;;;;;5073757;28;20043;-60
2021/10/31 04:39:08;;;;;;;5.88;0.93;;;22.50;55.00;;;;;;5074323;28;20032;-56
2021/10/31 04:41:37;;;;;;;5.38;1.45;;;22.50;54.60;;;;;;5066423;28;20107;-59
2021/10/31 04:44:04;;;;;;;16.08;1.75;;;22.50;54.60;;;;;;5067918;28;20036;-63
2021/10/31 04:46:32;;;;;;;2.88;0.93;;;22.50;54.90;;;;;;5072904;28;20123;-56
2021/10/31 04:48:59;;;;;;;3.58;1.05;;;22.60;53.80;;;;;;5073212;28;20032;-59
2021/10/31 04:51:27;;;;;;;4.53;1.20;;;22.60;53.90;;;;;;5072573;28;20372;-59
2021/10/31 04:53:54;;;;;;;5.95;0.95;;;22.40;53.40;;;;;;5069137;28;20059;-56
2021/10/31 04:56:23;;;;;;;10.43;1.00;;;22.30;54.20;;;;;;5072592;28;20062;-59
2021/10/31 04:58:51;;;;;;;4.93;1.38;;;22.00;53.90;;;;;;5072427;28;20463;-57
2021/10/31 05:01:22;;;;;;;5.03;1.52;;;22.00;54.20;;;;;;5072651;28;20067;-56
2021/10/31 05:03:50;;;;;;;2.78;0.90;;;22.00;54.70;;;;;;5068110;28;20431;-58
2021/10/31 05:06:17;;;;;;;4.70;1.65;;;21.90;55.10;;;;;;5073097;28;20379;-57
2021/10/31 05:08:45;;;;;;;2.58;0.77;;;21.90;55.30;;;;;;5073562;28;20028;-60
2021/10/31 05:11:13;;;;;;;3.40;0.85;;;22.00;55.30;;;;;;5073999;28;20029;-59
2021/10/31 05:13:44;;;;;;;8.18;1.38;;;21.70;53.70;;;;;;5072861;28;20116;-64
2021/10/31 05:16:14;;;;;;;8.18;1.48;;;21.80;54.90;;;;;;5074261;28;20033;-63
2021/10/31 05:18:41;;;;;;;4.50;1.20;;;21.90;55.20;;;;;;5073987;28;20024;-64
2021/10/31 05:21:09;;;;;;;4.82;1.13;;;21.90;55.20;;;;;;5065893;28;20383;-60
2021/10/31 05:23:37;;;;;;;6.95;1.60;;;22.00;55.10;;;;;;5071162;28;20031;-61
2021/10/31 05:26:05;;;;;;;2.72;0.77;;;22.00;55.00;;;;;;5071205;28;20608;-63
2021/10/31 05:28:35;;;;;;;6.97;1.65;;;22.10;54.70;;;;;;5069892;28;20028;-62
2021/10/31 05:31:03;;;;;;;4.30;2.45;;;22.20;55.00;;;;;;5072540;28;20422;-59
2021/10/31 05:33:30;;;;;;;6.70;2.70;;;22.20;54.90;;;;;;5072608;28;20109;-56
2021/10/31 05:35:58;;;;;;;2.20;0.85;;;22.30;54.90;;;;;;5072805;28;20044;-62
2021/10/31 05:38:25;;;;;;;10.23;7.72;;;21.60;53.80;;;;;;5069762;28;20025;-59
2021/10/31 05:40:56;;;;;;;8.02;4.40;;;21.30;56.90;;;;;;5070711;28;20025;-62
2021/10/31 05:43:23;;;;;;;7.25;5.45;;;21.70;55.40;;;;;;5070949;28;20021;-62
2021/10/31 05:45:51;;;;;;;9.30;2.88;;;21.80;56.00;;;;;;5072181;28;20475;-64
2021/10/31 05:48:18;;;;;;;2.75;1.02;;;21.60;55.50;;;;;;5069393;28;20090;-61
2021/10/31 05:50:46;;;;;;;5.18;2.22;;;21.10;57.10;;;;;;5054039;28;20020;-62
2021/10/31 05:53:17;;;;;;;3.78;1.63;;;21.10;57.80;;;;;;5072015;28;20048;-60
2021/10/31 05:55:46;;;;;;;4.53;1.98;;;21.40;57.30;;;;;;5071479;28;20048;-62
2021/10/31 05:58:13;;;;;;;4.97;1.58;;;21.30;57.30;;;;;;5066770;28;20070;-61
2021/10/31 06:00:41;;;;;;;4.78;2.90;;;21.00;58.90;;;;;;5071000;28;20028;-65
2021/10/31 06:03:09;;;;;;;8.70;2.30;;;21.40;58.50;;;;;;5069886;28;20577;-65
2021/10/31 06:05:39;;;;;;;4.13;1.30;;;21.30;59.20;;;;;;5070779;28;20032;-58
2021/10/31 06:08:13;;;;;;;8.10;2.22;;;21.20;58.90;;;;;;5066381;28;20060;-61
2021/10/31 06:10:41;;;;;;;6.25;1.98;;;21.30;58.80;;;;;;5069232;28;20017;-61
2021/10/31 06:13:09;;;;;;;3.88;1.98;;;21.10;59.20;;;;;;5071608;28;20044;-61
2021/10/31 06:15:36;;;;;;;7.35;2.35;;;21.50;58.80;;;;;;5071458;28;20483;-61
2021/10/31 06:18:04;;;;;;;4.55;1.73;;;21.30;59.30;;;;;;5065767;28;20032;-62
2021/10/31 06:20:32;;;;;;;5.00;2.03;;;21.50;58.70;;;;;;5071329;28;20100;-63
2021/10/31 06:22:59;;;;;;;6.40;2.75;;;21.40;58.90;;;;;;5068022;28;20107;-63
2021/10/31 06:25:27;;;;;;;8.68;1.48;;;21.70;57.90;;;;;;5071002;28;20382;-63
2021/10/31 06:27:54;;;;;;;3.13;1.00;;;21.20;59.00;;;;;;5065208;28;20040;-62
2021/10/31 06:30:22;;;;;;;7.18;1.63;;;20.40;61.00;;;;;;5071321;28;20024;-63
2021/10/31 06:32:49;;;;;;;9.00;1.75;;;20.10;62.90;;;;;;5071491;28;20029;-61
2021/10/31 06:35:17;;;;;;;3.78;1.15;;;20.10;63.20;;;;;;5071523;28;20104;-63
2021/10/31 06:37:44;;;;;;;4.50;1.35;;;20.10;62.70;;;;;;5064183;28;20424;-64
2021/10/31 06:40:12;;;;;;;6.75;1.73;;;20.50;62.10;;;;;;5070922;28;20459;-66
2021/10/31 06:42:40;;;;;;;17.65;2.53;;;20.90;61.30;;;;;;5066805;28;20055;-66
2021/10/31 06:45:08;;;;;;;4.72;1.67;;;21.10;60.60;;;;;;5072033;28;20395;-62
2021/10/31 06:47:36;;;;;;;3.67;1.95;;;21.30;60.30;;;;;;5065358;28;21238;-63
2021/10/31 06:50:04;;;;;;;5.18;1.90;;;21.50;60.00;;;;;;5071082;28;20021;-63
2021/10/31 06:52:33;;;;;;;8.98;1.80;;;21.50;60.40;;;;;;5070071;28;20089;-63
2021/10/31 06:55:00;;;;;;;5.57;1.83;;;21.70;60.00;;;;;;5071146;28;20044;-61
2021/10/31 06:57:28;;;;;;;6.32;1.40;;;21.70;60.20;;;;;;5064958;28;20060;-67
2021/10/31 06:59:55;;;;;;;2.63;1.20;;;21.80;59.50;;;;;;5069537;28;20103;-66
2021/10/31 07:02:23;;;;;;;4.43;1.40;;;21.80;59.40;;;;;;5070314;28;20036;-64
2021/10/31 07:04:50;;;;;;;4.00;1.45;;;21.90;59.30;;;;;;5071281;28;20056;-65
2021/10/31 07:07:19;;;;;;;3.35;1.33;;;21.90;59.30;;;;;;5068560;28;20142;-63
2021/10/31 07:09:46;;;;;;;6.75;1.95;;;21.90;59.40;;;;;;5067865;28;20535;-64
2021/10/31 07:12:14;;;;;;;4.85;1.67;;;22.00;59.30;;;;;;5070157;28;20033;-66
2021/10/31 07:14:41;;;;;;;4.43;1.63;;;22.00;59.30;;;;;;5070026;28;20028;-62
2021/10/31 07:17:09;;;;;;;3.35;1.67;;;22.00;59.30;;;;;;5071128;28;20032;-63
2021/10/31 07:19:36;;;;;;;6.93;1.50;;;22.00;59.50;;;;;;5064568;28;20064;-61
2021/10/31 07:22:04;;;;;;;3.22;1.25;;;22.00;59.50;;;;;;5070669;28;20020;-65
2021/10/31 07:24:32;;;;;;;3.40;1.40;;;22.00;59.50;;;;;;5070996;28;20383;-62
2021/10/31 07:26:59;;;;;;;2.70;1.20;;;22.00;59.40;;;;;;5070498;28;20040;-62
2021/10/31 07:29:27;;;;;;;3.03;0.98;;;22.00;59.70;;;;;;5063750;28;20471;-66
2021/10/31 07:31:54;;;;;;;2.45;1.50;;;22.00;59.60;;;;;;5070352;28;20082;-61
2021/10/31 07:34:25;;;;;;;4.00;1.58;;;21.90;59.60;;;;;;5070916;28;20063;-61
2021/10/31 07:36:53;;;;;;;3.63;1.10;;;22.00;59.60;;;;;;5073120;28;20032;-63
2021/10/31 07:39:21;;;;;;;3.25;1.20;;;21.90;59.70;;;;;;5075687;28;20027;-66
2021/10/31 07:41:49;;;;;;;5.72;1.23;;;21.90;60.00;;;;;;5075860;28;20031;-63
2021/10/31 07:44:17;;;;;;;3.47;1.40;;;21.90;60.00;;;;;;5075566;28;20016;-66
2021/10/31 07:46:45;;;;;;;1.85;1.00;;;21.80;60.00;;;;;;5075661;28;20425;-62
2021/10/31 07:49:12;;;;;;;2.08;1.05;;;21.80;60.00;;;;;;5074475;28;20328;-64
2021/10/31 07:51:39;;;;;;;3.50;1.30;;;21.80;60.10;;;;;;5075603;28;20021;-62
2021/10/31 07:54:07;;;;;;;5.43;1.45;;;21.80;60.10;;;;;;5075413;28;20032;-66
2021/10/31 07:56:36;;;;;;;6.65;0.98;;;21.80;60.40;;;;;;5075032;28;20055;-64
2021/10/31 07:59:04;;;;;;;2.40;1.17;;;21.80;60.50;;;;;;5075031;28;20057;-65
2021/10/31 08:01:31;;;;;;;3.17;1.00;;;21.70;60.40;;;;;;5073642;28;20029;-63
2021/10/31 08:03:58;;;;;;;2.60;1.15;;;21.70;60.30;;;;;;5075116;28;20051;-63
2021/10/31 08:06:27;;;;;;;3.53;1.30;;;21.60;60.40;;;;;;5073869;28;20035;-64
2021/10/31 08:08:54;;;;;;;2.45;0.90;;;21.60;60.50;;;;;;5075404;28;20029;-68
2021/10/31 08:11:22;;;;;;;2.58;1.08;;;21.70;60.50;;;;;;5069375;28;20383;-62
2021/10/31 08:13:50;;;;;;;6.00;2.05;;;21.60;60.80;;;;;;5068551;28;20025;-63
2021/10/31 08:16:19;;;;;;;9.68;4.03;;;21.60;61.30;;;;;;5072822;28;20445;-64
2021/10/31 08:18:46;;;;;;;23.92;12.20;;;21.60;61.00;;;;;;5073466;28;20390;-64
2021/10/31 08:21:13;;;;;;;44.53;23.38;;;21.60;61.10;;;;;;5073575;28;20444;-60
2021/10/31 08:23:41;;;;;;;69.70;38.80;;;21.60;60.80;;;;;;5072584;28;20581;-64
2021/10/31 08:26:08;;;;;;;84.32;47.08;;;21.60;61.00;;;;;;5070800;28;20032;-65
2021/10/31 08:28:39;;;;;;;93.38;51.85;;;21.60;61.20;;;;;;5073625;28;20036;-62
2021/10/31 08:31:07;;;;;;;88.43;53.60;;;21.60;61.10;;;;;;5073577;28;20031;-60
2021/10/31 08:33:41;;;;;;;87.15;46.55;;;21.50;61.20;;;;;;5072422;28;20025;-60
2021/10/31 08:36:10;;;;;;;100.13;57.63;;;21.60;61.00;;;;;;5069762;28;20025;-57
2021/10/31 08:38:44;;;;;;;92.65;54.67;;;21.50;61.30;;;;;;5073245;28;20215;-64
2021/10/31 08:41:12;;;;;;;100.45;57.92;;;21.50;61.10;;;;;;5072029;28;20028;-62
2021/10/31 08:43:42;;;;;;;93.65;52.97;;;21.50;61.50;;;;;;5071048;28;20056;-63
2021/10/31 08:46:11;;;;;;;85.32;53.45;;;21.50;61.20;;;;;;5068742;28;20025;-62
2021/10/31 08:48:39;;;;;;;93.05;53.58;;;21.40;61.30;;;;;;5073306;28;20110;-63
2021/10/31 08:51:12;;;;;;;96.07;55.15;;;21.50;61.30;;;;;;5069326;28;20031;-58
2021/10/31 08:53:39;;;;;;;94.57;54.20;;;21.50;61.30;;;;;;5066283;28;20032;-65
2021/10/31 08:56:11;;;;;;;94.65;56.05;;;21.40;61.40;;;;;;5067327;28;20076;-61
2021/10/31 08:58:43;;;;;;;94.13;54.70;;;21.50;61.50;;;;;;5073356;28;20098;-63
2021/10/31 09:01:14;;;;;;;95.40;55.83;;;21.40;61.40;;;;;;5073041;28;20111;-60
2021/10/31 09:03:42;;;;;;;80.32;46.65;;;21.40;61.60;;;;;;5070729;28;20033;-60
2021/10/31 09:06:12;;;;;;;75.65;47.38;;;21.40;61.30;;;;;;5065402;28;20086;-59
2021/10/31 09:08:41;;;;;;;82.90;50.20;;;21.30;61.20;;;;;;5072992;28;20033;-64
2021/10/31 09:11:12;;;;;;;85.10;50.90;;;21.30;61.50;;;;;;5071722;28;20617;-61
2021/10/31 09:13:39;;;;;;;87.90;52.22;;;21.30;61.60;;;;;;5068483;28;20090;-62
2021/10/31 09:16:07;;;;;;;87.38;53.58;;;21.20;61.70;;;;;;5067032;28;20021;-65
2021/10/31 09:18:37;;;;;;;83.57;51.58;;;21.20;61.80;;;;;;5069699;28;20455;-60
2021/10/31 09:21:05;;;;;;;79.13;49.00;;;21.20;62.00;;;;;;5072167;28;20021;-60
2021/10/31 09:23:33;;;;;;;73.95;45.33;;;21.20;62.00;;;;;;5069997;28;20085;-63
2021/10/31 09:26:01;;;;;;;82.30;48.28;;;21.10;62.00;;;;;;5067484;28;20021;-64
2021/10/31 09:28:29;;;;;;;81.68;47.05;;;21.10;62.20;;;;;;5070529;28;20037;-64
2021/10/31 09:30:57;;;;;;;76.35;46.72;;;21.10;62.30;;;;;;5069998;28;20420;-60
2021/10/31 09:33:24;;;;;;;79.55;46.38;;;21.10;62.40;;;;;;5070989;28;20107;-61
2021/10/31 09:35:57;;;;;;;71.13;46.55;;;21.00;62.50;;;;;;5067086;28;20020;-60
2021/10/31 09:38:26;;;;;;;79.20;46.70;;;21.00;62.40;;;;;;5068520;28;20047;-63
2021/10/31 09:40:55;;;;;;;74.43;44.15;;;21.00;62.40;;;;;;5068120;28;20356;-66
2021/10/31 09:43:26;;;;;;;75.25;45.05;;;21.00;62.50;;;;;;5068589;28;20097;-64
2021/10/31 09:45:59;;;;;;;76.97;44.23;;;21.00;62.60;;;;;;5064953;28;20062;-60
2021/10/31 09:48:32;;;;;;;75.47;44.70;;;20.90;62.60;;;;;;5068632;28;20029;-59
2021/10/31 09:51:01;;;;;;;69.35;42.50;;;20.90;62.50;;;;;;5071691;28;20032;-61
2021/10/31 09:53:29;;;;;;;67.88;42.13;;;20.90;62.60;;;;;;5070809;28;20555;-61
2021/10/31 09:55:57;;;;;;;74.53;42.28;;;20.90;62.70;;;;;;5064483;28;20056;-58
2021/10/31 09:58:31;;;;;;;71.78;42.85;;;20.90;62.80;;;;;;5071112;28;20025;-63
2021/10/31 10:00:59;;;;;;;66.35;40.15;;;20.90;62.80;;;;;;5068121;28;20070;-63
2021/10/31 10:03:38;;;;;;;63.90;41.38;;;20.80;62.70;;;;;;5070664;28;20024;-61
2021/10/31 10:06:14;;;;;;;74.32;42.42;;;20.80;62.90;;;;;;5065684;28;20024;-58
2021/10/31 10:09:01;;;;;;;65.82;40.90;;;20.80;62.90;;;;;;5069277;28;20033;-63
2021/10/31 10:11:32;;;;;;;70.32;42.42;;;20.80;62.90;;;;;;5071375;28;20383;-64
2021/10/31 10:14:19;;;;;;;64.07;39.50;;;20.80;62.90;;;;;;5062861;28;20497;-66
2021/10/31 10:16:48;;;;;;;60.70;38.85;;;20.80;62.80;;;;;;5071836;28;20472;-66
2021/10/31 10:19:27;;;;;;;62.67;39.25;;;20.80;62.70;;;;;;5069710;28;20194;-60
2021/10/31 10:22:07;;;;;;;70.35;40.92;;;20.90;62.80;;;;;;5071368;28;20056;-62
2021/10/31 10:24:40;;;;;;;61.92;40.30;;;20.80;62.60;;;;;;5065189;28;20028;-67
2021/10/31 10:27:11;;;;;;;64.22;39.25;;;20.90;62.80;;;;;;5071046;28;20343;-63
2021/10/31 10:29:40;;;;;;;59.50;38.03;;;20.80;62.70;;;;;;5071284;28;20032;-64
2021/10/31 10:32:22;;;;;;;65.15;39.83;;;20.90;62.80;;;;;;5068989;28;20073;-62
2021/10/31 10:34:53;;;;;;;57.83;35.78;;;20.80;62.60;;;;;;5064306;28;20357;-65
2021/10/31 10:37:31;;;;;;;61.70;36.05;;;20.90;62.90;;;;;;5071091;28;20028;-58
2021/10/31 10:40:09;;;;;;;63.42;37.67;;;20.90;62.80;;;;;;5070211;28;20020;-59
2021/10/31 10:42:44;;;;;;;55.47;35.05;;;20.80;62.70;;;;;;5066686;28;20112;-60
2021/10/31 10:45:15;;;;;;;58.22;35.22;;;20.90;62.80;;;;;;5065719;28;20024;-62
2021/10/31 10:47:55;;;;;;;65.18;37.10;;;20.80;62.70;;;;;;5070983;28;20037;-61
2021/10/31 10:50:28;;;;;;;55.30;34.15;;;20.80;62.70;;;;;;5071588;28;20031;-65
2021/10/31 10:52:56;;;;;;;59.53;35.38;;;20.80;62.70;;;;;;5070028;28;20462;-62
2021/10/31 10:55:26;;;;;;;52.50;33.97;;;20.80;62.70;;;;;;5065623;28;20151;-63
2021/10/31 10:58:13;;;;;;;55.10;35.25;;;20.90;62.80;;;;;;5071296;28;20384;-65
2021/10/31 11:00:43;;;;;;;55.90;34.78;;;20.80;62.70;;;;;;5066964;28;20024;-62
2021/10/31 11:03:18;;;;;;;51.08;32.53;;;20.80;62.80;;;;;;5065955;28;20056;-63
2021/10/31 11:06:03;;;;;;;53.28;33.30;;;20.90;62.80;;;;;;5060611;28;20033;-57
2021/10/31 11:08:31;;;;;;;53.13;33.92;;;20.80;62.70;;;;;;5068922;28;20081;-64
2021/10/31 11:11:15;;;;;;;51.15;31.80;;;20.90;62.80;;;;;;5071368;28;20023;-63
2021/10/31 11:13:53;;;;;;;49.85;31.15;;;20.90;62.90;;;;;;5073695;28;20028;-65
2021/10/31 11:16:22;;;;;;;47.65;31.95;;;20.90;63.00;;;;;;5070805;28;20021;-63
2021/10/31 11:18:49;;;;;;;54.65;32.30;;;20.80;62.80;;;;;;5074664;28;20036;-63
2021/10/31 11:21:17;;;;;;;52.60;33.67;;;20.80;62.80;;;;;;5074583;28;20032;-64
2021/10/31 11:23:47;;;;;;;44.88;30.92;;;20.80;62.70;;;;;;5069064;28;20029;-64
2021/10/31 11:26:16;;;;;;;50.22;30.65;;;20.80;62.80;;;;;;5071151;28;20024;-64
2021/10/31 11:28:43;;;;;;;51.58;33.47;;;20.80;63.00;;;;;;5074444;28;20032;-65
2021/10/31 11:31:11;;;;;;;44.42;30.17;;;20.80;62.90;;;;;;5074686;28;20436;-64
2021/10/31 11:33:39;;;;;;;48.95;29.80;;;20.80;62.80;;;;;;5072827;28;20033;-66
2021/10/31 11:36:06;;;;;;;47.45;30.50;;;20.80;62.70;;;;;;5069080;28;20024;-63
2021/10/31 11:38:35;;;;;;;47.55;29.85;;;20.80;62.70;;;;;;5074168;28;20027;-65
2021/10/31 11:41:10;;;;;;;48.78;30.48;;;20.80;62.60;;;;;;5075012;28;20033;-67
2021/10/31 11:43:48;;;;;;;50.72;29.55;;;20.80;62.60;;;;;;5075220;28;20029;-64
2021/10/31 11:46:15;;;;;;;42.25;29.77;;;20.80;62.50;;;;;;5075350;28;20086;-64
2021/10/31 11:48:59;;;;;;;44.50;28.20;;;20.80;62.50;;;;;;5074778;28;20028;-62
2021/10/31 11:51:40;;;;;;;45.10;28.30;;;20.80;62.50;;;;;;5075100;28;20020;-61
2021/10/31 11:54:08;;;;;;;45.75;29.42;;;20.80;62.60;;;;;;5075002;28;20025;-66
2021/10/31 11:56:40;;;;;;;45.40;28.17;;;20.80;62.60;;;;;;5075009;28;20053;-66
2021/10/31 11:59:16;;;;;;;42.13;27.13;;;20.70;62.40;;;;;;5075505;28;20032;-64
2021/10/31 12:01:50;;;;;;;41.33;26.65;;;20.70;63.10;;;;;;5075090;28;20028;-65
2021/10/31 12:04:47;;;;;;;43.75;26.13;;;20.60;62.30;;;;;;5075120;28;20021;-63
2021/10/31 12:07:43;;;;;;;41.92;26.45;;;20.70;62.40;;;;;;5073380;28;20044;-65
2021/10/31 12:10:37;;;;;;;38.00;25.25;;;20.60;62.30;;;;;;5075257;28;20356;-67
2021/10/31 12:13:23;;;;;;;41.40;27.27;;;20.60;62.40;;;;;;5074975;28;20098;-66
2021/10/31 12:16:11;;;;;;;40.70;25.92;;;20.60;63.00;;;;;;5074860;28;20036;-64
2021/10/31 12:18:58;;;;;;;40.95;26.20;;;20.60;62.40;;;;;;5073388;28;20575;-67
2021/10/31 12:21:26;;;;;;;42.53;25.27;;;20.60;62.50;;;;;;5074817;28;20032;-63
2021/10/31 12:24:13;;;;;;;40.22;25.17;;;20.50;62.40;;;;;;5074145;28;20025;-64
2021/10/31 12:26:48;;;;;;;42.33;23.73;;;20.50;62.50;;;;;;5074394;28;20073;-64
2021/10/31 12:29:22;;;;;;;36.67;23.42;;;20.50;62.50;;;;;;5074561;28;20482;-65
2021/10/31 12:32:04;;;;;;;34.15;22.55;;;20.50;62.60;;;;;;5074223;28;20028;-66
2021/10/31 12:34:43;;;;;;;35.38;23.10;;;20.50;62.60;;;;;;5073828;28;20467;-63
2021/10/31 12:37:23;;;;;;;37.03;23.90;;;20.50;62.60;;;;;;5074263;28;20035;-68
2021/10/31 12:39:53;;;;;;;37.60;24.38;;;20.40;62.60;;;;;;5074093;28;20029;-65
2021/10/31 12:42:55;;;;;;;34.88;22.33;;;20.40;62.60;;;;;;5074246;28;20135;-63
2021/10/31 12:45:26;;;;;;;35.28;21.65;;;20.40;62.60;;;;;;5073857;28;20413;-63
2021/10/31 12:48:12;;;;;;;35.40;21.60;;;20.40;62.60;;;;;;5073760;28;20036;-66
2021/10/31 12:50:51;;;;;;;34.58;20.88;;;20.30;62.60;;;;;;5073656;28;20033;-65
2021/10/31 12:53:18;;;;;;;36.15;22.27;;;20.40;62.70;;;;;;5072765;28;20025;-64
2021/10/31 12:55:46;;;;;;;36.45;22.48;;;20.40;62.70;;;;;;5073454;28;20499;-66
2021/10/31 12:58:20;;;;;;;33.03;21.50;;;20.30;62.60;;;;;;5073943;28;20035;-64
2021/10/31 13:00:53;;;;;;;30.60;20.50;;;20.30;62.70;;;;;;5073890;28;20056;-65